sensor_id;sensor_type;location;lat;lon;timestamp;temperature;humidity
8892;DHT22;4482;54.332;10.118;2023-04-24T00:01:20;12.60;99.90
8892;DHT22;4482;54.332;10.118;2023-04-24T00:03:46;12.40;99.90
8892;DHT22;4482;54.332;10.118;2023-04-24T00:06:13;12.30;99.90
8892;DHT22;4482;54.332;10.118;2023-04-24T00:08:42;12.20;99.90
8892;DHT22;4482;54.332;10.118;2023-04-24T00:11:10;12.10;99.90
8892;DHT22;4482;54.332;10.118;2023-04-24T00:13:37;11.90;99.90
8892;DHT22;4482;54.332;10.118;2023-04-24T00:16:04;11.90;99.90
8892;DHT22;4482;54.332;10.118;2023-04-24T00:18:30;11.80;99.90
8892;DHT22;4482;54.332;10.118;2023-04-24T00:20:57;11.80;99.90
8892;DHT22;4482;54.332;10.118;2023-04-24T00:23:24;11.80;99.90
8892;DHT22;4482;54.332;10.118;2023-04-24T00:25:50;11.70;99.90
8892;DHT22;4482;54.332;10.118;2023-04-24T00:28:18;11.80;99.90
8892;DHT22;4482;54.332;10.118;2023-04-24T00:30:45;11.80;99.90
8892;DHT22;4482;54.332;10.118;2023-04-24T00:33:11;11.80;99.90
8892;DHT22;4482;54.332;10.118;2023-04-24T00:35:38;11.80;99.90
8892;DHT22;4482;54.332;10.118;2023-04-24T00:38:05;11.80;99.90
8892;DHT22;4482;54.332;10.118;2023-04-24T00:40:32;11.80;99.90
8892;DHT22;4482;54.332;10.118;2023-04-24T00:42:59;11.70;99.90
8892;DHT22;4482;54.332;10.118;2023-04-24T00:45:27;11.80;99.90
8892;DHT22;4482;54.332;10.118;2023-04-24T00:47:54;11.80;99.90
8892;DHT22;4482;54.332;10.118;2023-04-24T00:50:20;11.70;99.90
8892;DHT22;4482;54.332;10.118;2023-04-24T00:52:47;11.70;99.90
8892;DHT22;4482;54.332;10.118;2023-04-24T00:55:14;11.70;99.90
8892;DHT22;4482;54.332;10.118;2023-04-24T00:57:41;11.60;99.90
8892;DHT22;4482;54.332;10.118;2023-04-24T01:00:08;11.60;99.90
8892;DHT22;4482;54.332;10.118;2023-04-24T01:02:39;11.60;99.90
8892;DHT22;4482;54.332;10.118;2023-04-24T01:05:09;11.60;99.90
8892;DHT22;4482;54.332;10.118;2023-04-24T01:07:37;11.50;99.90
8892;DHT22;4482;54.332;10.118;2023-04-24T01:10:04;11.40;99.90
8892;DHT22;4482;54.332;10.118;2023-04-24T01:12:31;11.40;99.90
8892;DHT22;4482;54.332;10.118;2023-04-24T01:14:58;11.40;99.90
8892;DHT22;4482;54.332;10.118;2023-04-24T01:17:25;11.30;99.90
8892;DHT22;4482;54.332;10.118;2023-04-24T01:19:53;11.30;99.90
8892;DHT22;4482;54.332;10.118;2023-04-24T01:22:23;11.30;99.90
8892;DHT22;4482;54.332;10.118;2023-04-24T01:24:50;11.30;99.90
8892;DHT22;4482;54.332;10.118;2023-04-24T01:27:17;11.30;99.90
8892;DHT22;4482;54.332;10.118;2023-04-24T01:29:43;11.30;99.90
8892;DHT22;4482;54.332;10.118;2023-04-24T01:32:10;11.30;99.90
8892;DHT22;4482;54.332;10.118;2023-04-24T01:34:37;11.20;99.90
8892;DHT22;4482;54.332;10.118;2023-04-24T01:37:04;11.20;99.90
8892;DHT22;4482;54.332;10.118;2023-04-24T01:39:32;11.20;99.90
8892;DHT22;4482;54.332;10.118;2023-04-24T01:41:59;11.20;99.90
8892;DHT22;4482;54.332;10.118;2023-04-24T01:44:27;11.20;99.90
8892;DHT22;4482;54.332;10.118;2023-04-24T01:46:54;11.20;99.90
8892;DHT22;4482;54.332;10.118;2023-04-24T01:49:21;11.30;99.90
8892;DHT22;4482;54.332;10.118;2023-04-24T01:51:48;11.20;99.90
8892;DHT22;4482;54.332;10.118;2023-04-24T01:54:15;11.20;99.90
8892;DHT22;4482;54.332;10.118;2023-04-24T01:56:43;11.20;99.90
8892;DHT22;4482;54.332;10.118;2023-04-24T01:59:10;11.20;99.90
8892;DHT22;4482;54.332;10.118;2023-04-24T02:01:37;11.20;99.90
8892;DHT22;4482;54.332;10.118;2023-04-24T02:04:04;11.20;99.90
8892;DHT22;4482;54.332;10.118;2023-04-24T02:06:31;11.20;99.90
8892;DHT22;4482;54.332;10.118;2023-04-24T02:08:57;11.10;99.90
8892;DHT22;4482;54.332;10.118;2023-04-24T02:11:24;11.10;99.90
8892;DHT22;4482;54.332;10.118;2023-04-24T02:13:52;11.10;99.90
8892;DHT22;4482;54.332;10.118;2023-04-24T02:16:19;11.10;99.90
8892;DHT22;4482;54.332;10.118;2023-04-24T02:18:46;11.10;99.90
8892;DHT22;4482;54.332;10.118;2023-04-24T02:21:12;11.10;99.90
8892;DHT22;4482;54.332;10.118;2023-04-24T02:23:39;11.10;99.90
8892;DHT22;4482;54.332;10.118;2023-04-24T02:26:06;11.00;99.90
8892;DHT22;4482;54.332;10.118;2023-04-24T02:28:32;11.00;99.90
8892;DHT22;4482;54.332;10.118;2023-04-24T02:31:00;11.00;99.90
8892;DHT22;4482;54.332;10.118;2023-04-24T02:33:27;11.00;99.90
8892;DHT22;4482;54.332;10.118;2023-04-24T02:35:54;10.90;99.90
8892;DHT22;4482;54.332;10.118;2023-04-24T02:38:20;11.00;99.90
8892;DHT22;4482;54.332;10.118;2023-04-24T02:40:47;11.00;99.90
8892;DHT22;4482;54.332;10.118;2023-04-24T02:43:13;11.00;99.90
8892;DHT22;4482;54.332;10.118;2023-04-24T02:45:40;11.00;99.90
8892;DHT22;4482;54.332;10.118;2023-04-24T02:48:08;10.90;99.90
8892;DHT22;4482;54.332;10.118;2023-04-24T02:50:35;10.90;99.90
8892;DHT22;4482;54.332;10.118;2023-04-24T02:53:01;10.90;99.90
8892;DHT22;4482;54.332;10.118;2023-04-24T02:55:28;10.90;99.90
8892;DHT22;4482;54.332;10.118;2023-04-24T02:57:55;10.90;99.90
8892;DHT22;4482;54.332;10.118;2023-04-24T03:00:22;11.00;99.90
8892;DHT22;4482;54.332;10.118;2023-04-24T03:02:48;11.00;99.90
8892;DHT22;4482;54.332;10.118;2023-04-24T03:05:17;11.00;99.90
8892;DHT22;4482;54.332;10.118;2023-04-24T03:07:43;11.00;99.90
8892;DHT22;4482;54.332;10.118;2023-04-24T03:10:10;11.00;99.90
8892;DHT22;4482;54.332;10.118;2023-04-24T03:12:37;11.00;99.90
8892;DHT22;4482;54.332;10.118;2023-04-24T03:15:04;10.90;99.90
8892;DHT22;4482;54.332;10.118;2023-04-24T03:17:31;10.90;99.90
8892;DHT22;4482;54.332;10.118;2023-04-24T03:19:57;10.90;99.90
8892;DHT22;4482;54.332;10.118;2023-04-24T03:22:26;10.90;99.90
8892;DHT22;4482;54.332;10.118;2023-04-24T03:24:52;11.00;99.90
8892;DHT22;4482;54.332;10.118;2023-04-24T03:27:20;11.00;99.90
8892;DHT22;4482;54.332;10.118;2023-04-24T03:29:46;11.00;99.90
8892;DHT22;4482;54.332;10.118;2023-04-24T03:32:13;11.10;99.90
8892;DHT22;4482;54.332;10.118;2023-04-24T03:34:39;11.10;99.90
8892;DHT22;4482;54.332;10.118;2023-04-24T03:37:06;11.10;99.90
8892;DHT22;4482;54.332;10.118;2023-04-24T03:39:34;11.00;99.90
8892;DHT22;4482;54.332;10.118;2023-04-24T03:42:01;11.00;99.90
8892;DHT22;4482;54.332;10.118;2023-04-24T03:44:28;11.00;99.90
8892;DHT22;4482;54.332;10.118;2023-04-24T03:46:55;10.90;99.90
8892;DHT22;4482;54.332;10.118;2023-04-24T03:49:21;10.90;99.90
8892;DHT22;4482;54.332;10.118;2023-04-24T03:51:48;10.90;99.90
8892;DHT22;4482;54.332;10.118;2023-04-24T03:54:14;10.90;99.90
8892;DHT22;4482;54.332;10.118;2023-04-24T03:56:42;10.90;99.90
8892;DHT22;4482;54.332;10.118;2023-04-24T03:59:09;10.90;99.90
8892;DHT22;4482;54.332;10.118;2023-04-24T04:01:36;10.80;99.90
8892;DHT22;4482;54.332;10.118;2023-04-24T04:04:03;10.80;99.90
8892;DHT22;4482;54.332;10.118;2023-04-24T04:06:29;10.80;99.90
8892;DHT22;4482;54.332;10.118;2023-04-24T04:08:57;10.80;99.90
8892;DHT22;4482;54.332;10.118;2023-04-24T04:11:24;10.80;99.90
8892;DHT22;4482;54.332;10.118;2023-04-24T04:13:52;10.80;99.90
8892;DHT22;4482;54.332;10.118;2023-04-24T04:16:18;10.80;99.90
8892;DHT22;4482;54.332;10.118;2023-04-24T04:18:45;10.90;99.90
8892;DHT22;4482;54.332;10.118;2023-04-24T04:21:12;10.80;99.90
8892;DHT22;4482;54.332;10.118;2023-04-24T04:23:38;10.90;99.90
8892;DHT22;4482;54.332;10.118;2023-04-24T04:26:05;11.00;99.90
8892;DHT22;4482;54.332;10.118;2023-04-24T04:28:33;11.00;99.90
8892;DHT22;4482;54.332;10.118;2023-04-24T04:31:01;11.10;99.90
8892;DHT22;4482;54.332;10.118;2023-04-24T04:33:28;11.10;99.90
8892;DHT22;4482;54.332;10.118;2023-04-24T04:35:54;11.10;99.90
8892;DHT22;4482;54.332;10.118;2023-04-24T04:38:22;11.10;99.90
8892;DHT22;4482;54.332;10.118;2023-04-24T04:40:48;11.10;99.90
8892;DHT22;4482;54.332;10.118;2023-04-24T04:43:15;11.10;99.90
8892;DHT22;4482;54.332;10.118;2023-04-24T04:45:42;11.20;99.90
8892;DHT22;4482;54.332;10.118;2023-04-24T04:48:10;11.20;99.90
8892;DHT22;4482;54.332;10.118;2023-04-24T04:50:38;11.20;99.90
8892;DHT22;4482;54.332;10.118;2023-04-24T04:53:04;11.40;99.90
8892;DHT22;4482;54.332;10.118;2023-04-24T04:55:32;11.60;99.90
8892;DHT22;4482;54.332;10.118;2023-04-24T04:57:58;11.70;99.90
8892;DHT22;4482;54.332;10.118;2023-04-24T05:00:26;11.70;99.90
8892;DHT22;4482;54.332;10.118;2023-04-24T05:02:54;11.80;99.90
8892;DHT22;4482;54.332;10.118;2023-04-24T05:05:22;12.00;99.90
8892;DHT22;4482;54.332;10.118;2023-04-24T05:07:48;12.10;99.90
8892;DHT22;4482;54.332;10.118;2023-04-24T05:10:15;12.20;99.90
8892;DHT22;4482;54.332;10.118;2023-04-24T05:12:42;12.20;99.90
8892;DHT22;4482;54.332;10.118;2023-04-24T05:15:09;12.30;99.90
8892;DHT22;4482;54.332;10.118;2023-04-24T05:17:35;12.30;99.90
8892;DHT22;4482;54.332;10.118;2023-04-24T05:20:03;12.40;99.90
8892;DHT22;4482;54.332;10.118;2023-04-24T05:22:32;12.60;99.90
8892;DHT22;4482;54.332;10.118;2023-04-24T05:24:58;12.80;99.90
8892;DHT22;4482;54.332;10.118;2023-04-24T05:27:25;12.80;99.90
8892;DHT22;4482;54.332;10.118;2023-04-24T05:29:52;12.60;99.90
8892;DHT22;4482;54.332;10.118;2023-04-24T05:32:18;12.50;99.90
8892;DHT22;4482;54.332;10.118;2023-04-24T05:34:45;12.50;99.90
8892;DHT22;4482;54.332;10.118;2023-04-24T05:37:11;12.80;99.90
8892;DHT22;4482;54.332;10.118;2023-04-24T05:39:40;12.80;99.90
8892;DHT22;4482;54.332;10.118;2023-04-24T05:42:07;12.70;99.90
8892;DHT22;4482;54.332;10.118;2023-04-24T05:44:33;12.70;99.90
8892;DHT22;4482;54.332;10.118;2023-04-24T05:47:00;13.20;99.90
8892;DHT22;4482;54.332;10.118;2023-04-24T05:49:27;13.90;99.90
8892;DHT22;4482;54.332;10.118;2023-04-24T05:51:54;14.70;99.90
8892;DHT22;4482;54.332;10.118;2023-04-24T05:54:20;14.90;99.90
8892;DHT22;4482;54.332;10.118;2023-04-24T05:56:48;14.40;99.90
8892;DHT22;4482;54.332;10.118;2023-04-24T05:59:15;13.80;99.90
8892;DHT22;4482;54.332;10.118;2023-04-24T06:01:42;13.80;99.90
8892;DHT22;4482;54.332;10.118;2023-04-24T06:04:09;14.70;99.90
8892;DHT22;4482;54.332;10.118;2023-04-24T06:06:36;15.20;99.90
8892;DHT22;4482;54.332;10.118;2023-04-24T06:09:03;15.60;99.90
8892;DHT22;4482;54.332;10.118;2023-04-24T06:11:30;16.00;99.90
8892;DHT22;4482;54.332;10.118;2023-04-24T06:13:58;16.80;99.90
8892;DHT22;4482;54.332;10.118;2023-04-24T06:16:25;17.30;99.90
8892;DHT22;4482;54.332;10.118;2023-04-24T06:18:51;16.90;99.90
8892;DHT22;4482;54.332;10.118;2023-04-24T06:21:18;16.20;99.90
8892;DHT22;4482;54.332;10.118;2023-04-24T06:23:45;15.60;99.90
8892;DHT22;4482;54.332;10.118;2023-04-24T06:26:12;15.30;99.90
8892;DHT22;4482;54.332;10.118;2023-04-24T06:28:39;15.40;99.90
8892;DHT22;4482;54.332;10.118;2023-04-24T06:31:07;15.50;99.90
8892;DHT22;4482;54.332;10.118;2023-04-24T06:33:33;15.90;99.90
8892;DHT22;4482;54.332;10.118;2023-04-24T06:36:00;16.00;99.90
8892;DHT22;4482;54.332;10.118;2023-04-24T06:38:27;15.60;99.90
8892;DHT22;4482;54.332;10.118;2023-04-24T06:40:54;15.20;99.90
8892;DHT22;4482;54.332;10.118;2023-04-24T06:43:21;15.00;99.90
8892;DHT22;4482;54.332;10.118;2023-04-24T06:45:48;15.00;99.90
8892;DHT22;4482;54.332;10.118;2023-04-24T06:48:16;15.00;99.90
8892;DHT22;4482;54.332;10.118;2023-04-24T06:50:43;14.90;99.90
8892;DHT22;4482;54.332;10.118;2023-04-24T06:53:10;14.50;99.90
8892;DHT22;4482;54.332;10.118;2023-04-24T06:55:38;14.50;99.90
8892;DHT22;4482;54.332;10.118;2023-04-24T06:58:04;14.30;99.90
8892;DHT22;4482;54.332;10.118;2023-04-24T07:00:31;14.30;99.90
8892;DHT22;4482;54.332;10.118;2023-04-24T07:02:58;14.10;99.90
8892;DHT22;4482;54.332;10.118;2023-04-24T07:05:26;13.90;99.90
8892;DHT22;4482;54.332;10.118;2023-04-24T07:07:53;13.80;99.90
8892;DHT22;4482;54.332;10.118;2023-04-24T07:10:20;13.90;99.90
8892;DHT22;4482;54.332;10.118;2023-04-24T07:12:47;13.90;99.90
8892;DHT22;4482;54.332;10.118;2023-04-24T07:15:14;13.90;99.90
8892;DHT22;4482;54.332;10.118;2023-04-24T07:17:41;13.90;99.90
8892;DHT22;4482;54.332;10.118;2023-04-24T07:20:09;13.90;99.90
8892;DHT22;4482;54.332;10.118;2023-04-24T07:22:37;13.90;99.90
8892;DHT22;4482;54.332;10.118;2023-04-24T07:25:04;13.90;99.90
8892;DHT22;4482;54.332;10.118;2023-04-24T07:27:31;13.90;99.90
8892;DHT22;4482;54.332;10.118;2023-04-24T07:29:57;14.00;99.90
8892;DHT22;4482;54.332;10.118;2023-04-24T07:32:24;13.90;99.90
8892;DHT22;4482;54.332;10.118;2023-04-24T07:34:51;13.90;99.90
8892;DHT22;4482;54.332;10.118;2023-04-24T07:37:17;13.70;99.90
8892;DHT22;4482;54.332;10.118;2023-04-24T07:39:45;13.50;99.90
8892;DHT22;4482;54.332;10.118;2023-04-24T07:42:12;13.50;99.90
8892;DHT22;4482;54.332;10.118;2023-04-24T07:44:39;13.40;99.90
8892;DHT22;4482;54.332;10.118;2023-04-24T07:47:05;13.50;99.90
8892;DHT22;4482;54.332;10.118;2023-04-24T07:49:32;13.50;99.90
8892;DHT22;4482;54.332;10.118;2023-04-24T07:52:00;13.70;99.90
8892;DHT22;4482;54.332;10.118;2023-04-24T07:54:27;13.70;99.90
8892;DHT22;4482;54.332;10.118;2023-04-24T07:56:56;13.80;99.90
8892;DHT22;4482;54.332;10.118;2023-04-24T07:59:23;13.80;99.90
8892;DHT22;4482;54.332;10.118;2023-04-24T08:01:49;13.80;99.90
8892;DHT22;4482;54.332;10.118;2023-04-24T08:04:19;13.70;99.90
8892;DHT22;4482;54.332;10.118;2023-04-24T08:06:46;13.70;99.90
8892;DHT22;4482;54.332;10.118;2023-04-24T08:09:13;13.60;99.90
8892;DHT22;4482;54.332;10.118;2023-04-24T08:11:40;13.50;99.90
8892;DHT22;4482;54.332;10.118;2023-04-24T08:14:08;13.40;99.90
8892;DHT22;4482;54.332;10.118;2023-04-24T08:16:34;13.30;99.90
8892;DHT22;4482;54.332;10.118;2023-04-24T08:19:01;13.10;99.90
8892;DHT22;4482;54.332;10.118;2023-04-24T08:21:28;13.10;99.90
8892;DHT22;4482;54.332;10.118;2023-04-24T08:23:55;13.10;99.90
8892;DHT22;4482;54.332;10.118;2023-04-24T08:26:21;13.00;99.90
8892;DHT22;4482;54.332;10.118;2023-04-24T08:28:48;12.90;99.90
8892;DHT22;4482;54.332;10.118;2023-04-24T08:31:17;12.90;99.90
8892;DHT22;4482;54.332;10.118;2023-04-24T08:33:44;12.90;99.90
8892;DHT22;4482;54.332;10.118;2023-04-24T08:36:11;12.90;99.90
8892;DHT22;4482;54.332;10.118;2023-04-24T08:38:37;12.90;99.90
8892;DHT22;4482;54.332;10.118;2023-04-24T08:41:04;13.00;99.90
8892;DHT22;4482;54.332;10.118;2023-04-24T08:43:32;13.10;99.90
8892;DHT22;4482;54.332;10.118;2023-04-24T08:45:59;13.30;99.90
8892;DHT22;4482;54.332;10.118;2023-04-24T08:48:28;13.40;99.90
8892;DHT22;4482;54.332;10.118;2023-04-24T08:50:55;13.50;99.90
8892;DHT22;4482;54.332;10.118;2023-04-24T08:53:22;13.60;99.90
8892;DHT22;4482;54.332;10.118;2023-04-24T08:55:50;13.70;99.90
8892;DHT22;4482;54.332;10.118;2023-04-24T08:58:17;13.70;99.90
8892;DHT22;4482;54.332;10.118;2023-04-24T09:00:44;13.80;99.90
8892;DHT22;4482;54.332;10.118;2023-04-24T09:03:13;13.90;99.90
8892;DHT22;4482;54.332;10.118;2023-04-24T09:05:41;14.10;99.90
8892;DHT22;4482;54.332;10.118;2023-04-24T09:08:11;14.50;99.90
8892;DHT22;4482;54.332;10.118;2023-04-24T09:10:39;15.10;99.90
8892;DHT22;4482;54.332;10.118;2023-04-24T09:13:06;15.70;99.90
8892;DHT22;4482;54.332;10.118;2023-04-24T09:15:34;15.90;99.90
8892;DHT22;4482;54.332;10.118;2023-04-24T09:18:01;15.90;99.90
8892;DHT22;4482;54.332;10.118;2023-04-24T09:20:27;15.70;99.90
8892;DHT22;4482;54.332;10.118;2023-04-24T09:22:55;15.30;99.90
8892;DHT22;4482;54.332;10.118;2023-04-24T09:25:23;15.00;99.90
8892;DHT22;4482;54.332;10.118;2023-04-24T09:27:53;14.90;99.90
8892;DHT22;4482;54.332;10.118;2023-04-24T09:30:20;14.90;99.90
8892;DHT22;4482;54.332;10.118;2023-04-24T09:32:48;15.00;99.90
8892;DHT22;4482;54.332;10.118;2023-04-24T09:35:14;15.10;99.90
8892;DHT22;4482;54.332;10.118;2023-04-24T09:37:42;15.30;99.90
8892;DHT22;4482;54.332;10.118;2023-04-24T09:40:12;15.50;99.90
8892;DHT22;4482;54.332;10.118;2023-04-24T09:42:38;15.50;99.90
8892;DHT22;4482;54.332;10.118;2023-04-24T09:45:08;15.30;99.90
8892;DHT22;4482;54.332;10.118;2023-04-24T09:47:35;15.00;99.90
8892;DHT22;4482;54.332;10.118;2023-04-24T09:50:08;14.70;99.90
8892;DHT22;4482;54.332;10.118;2023-04-24T09:52:35;14.70;99.90
8892;DHT22;4482;54.332;10.118;2023-04-24T09:55:02;15.00;99.90
8892;DHT22;4482;54.332;10.118;2023-04-24T09:57:30;15.30;99.90
8892;DHT22;4482;54.332;10.118;2023-04-24T09:59:57;15.50;99.90
8892;DHT22;4482;54.332;10.118;2023-04-24T10:02:24;15.70;99.90
8892;DHT22;4482;54.332;10.118;2023-04-24T10:04:54;15.80;99.90
8892;DHT22;4482;54.332;10.118;2023-04-24T10:07:21;15.40;99.90
8892;DHT22;4482;54.332;10.118;2023-04-24T10:09:48;15.40;99.90
8892;DHT22;4482;54.332;10.118;2023-04-24T10:12:15;15.20;99.90
8892;DHT22;4482;54.332;10.118;2023-04-24T10:14:43;15.30;99.90
8892;DHT22;4482;54.332;10.118;2023-04-24T10:17:10;15.60;99.90
8892;DHT22;4482;54.332;10.118;2023-04-24T10:19:37;17.10;99.90
8892;DHT22;4482;54.332;10.118;2023-04-24T10:22:04;18.30;99.90
8892;DHT22;4482;54.332;10.118;2023-04-24T10:24:31;18.60;99.90
8892;DHT22;4482;54.332;10.118;2023-04-24T10:26:58;18.70;99.90
8892;DHT22;4482;54.332;10.118;2023-04-24T10:29:26;18.80;99.90
8892;DHT22;4482;54.332;10.118;2023-04-24T10:31:55;19.40;99.90
8892;DHT22;4482;54.332;10.118;2023-04-24T10:34:21;18.90;99.90
8892;DHT22;4482;54.332;10.118;2023-04-24T10:36:50;18.50;99.90
8892;DHT22;4482;54.332;10.118;2023-04-24T10:39:17;18.70;99.90
8892;DHT22;4482;54.332;10.118;2023-04-24T10:41:44;19.00;99.90
8892;DHT22;4482;54.332;10.118;2023-04-24T10:44:13;19.10;99.90
8892;DHT22;4482;54.332;10.118;2023-04-24T10:46:42;18.80;99.90
8892;DHT22;4482;54.332;10.118;2023-04-24T10:49:11;19.00;99.90
8892;DHT22;4482;54.332;10.118;2023-04-24T10:51:44;18.80;99.90
8892;DHT22;4482;54.332;10.118;2023-04-24T10:54:21;19.80;99.90
8892;DHT22;4482;54.332;10.118;2023-04-24T10:56:48;19.90;99.90
8892;DHT22;4482;54.332;10.118;2023-04-24T10:59:23;19.50;99.90
8892;DHT22;4482;54.332;10.118;2023-04-24T11:01:52;19.50;99.90
8892;DHT22;4482;54.332;10.118;2023-04-24T11:04:30;18.90;99.90
8892;DHT22;4482;54.332;10.118;2023-04-24T11:06:57;18.10;99.90
8892;DHT22;4482;54.332;10.118;2023-04-24T11:09:26;17.20;99.90
8892;DHT22;4482;54.332;10.118;2023-04-24T11:11:53;16.60;99.90
8892;DHT22;4482;54.332;10.118;2023-04-24T11:14:28;16.30;99.90
8892;DHT22;4482;54.332;10.118;2023-04-24T11:16:55;16.30;99.90
8892;DHT22;4482;54.332;10.118;2023-04-24T11:19:22;16.10;99.90
8892;DHT22;4482;54.332;10.118;2023-04-24T11:21:55;16.30;99.90
8892;DHT22;4482;54.332;10.118;2023-04-24T11:24:26;16.30;99.90
8892;DHT22;4482;54.332;10.118;2023-04-24T11:26:53;16.20;99.90
8892;DHT22;4482;54.332;10.118;2023-04-24T11:29:20;16.20;99.90
8892;DHT22;4482;54.332;10.118;2023-04-24T11:31:47;16.20;99.90
8892;DHT22;4482;54.332;10.118;2023-04-24T11:34:16;16.30;99.90
8892;DHT22;4482;54.332;10.118;2023-04-24T11:36:44;16.10;99.90
8892;DHT22;4482;54.332;10.118;2023-04-24T11:39:12;16.00;99.90
8892;DHT22;4482;54.332;10.118;2023-04-24T11:41:39;15.60;99.90
8892;DHT22;4482;54.332;10.118;2023-04-24T11:44:06;15.10;99.90
8892;DHT22;4482;54.332;10.118;2023-04-24T11:46:33;14.80;99.90
8892;DHT22;4482;54.332;10.118;2023-04-24T11:48:59;14.60;99.90
8892;DHT22;4482;54.332;10.118;2023-04-24T11:51:27;14.50;99.90
8892;DHT22;4482;54.332;10.118;2023-04-24T11:53:54;14.40;99.90
8892;DHT22;4482;54.332;10.118;2023-04-24T11:56:22;14.50;99.90
8892;DHT22;4482;54.332;10.118;2023-04-24T11:58:51;14.60;99.90
8892;DHT22;4482;54.332;10.118;2023-04-24T12:01:18;14.70;99.90
8892;DHT22;4482;54.332;10.118;2023-04-24T12:03:47;14.80;99.90
8892;DHT22;4482;54.332;10.118;2023-04-24T12:06:13;14.90;99.90
8892;DHT22;4482;54.332;10.118;2023-04-24T12:08:40;15.00;99.90
8892;DHT22;4482;54.332;10.118;2023-04-24T12:11:07;14.90;99.90
8892;DHT22;4482;54.332;10.118;2023-04-24T12:13:35;15.00;99.90
8892;DHT22;4482;54.332;10.118;2023-04-24T12:16:02;15.20;99.90
8892;DHT22;4482;54.332;10.118;2023-04-24T12:18:29;15.30;99.90
8892;DHT22;4482;54.332;10.118;2023-04-24T12:23:37;15.30;99.90
8892;DHT22;4482;54.332;10.118;2023-04-24T12:26:04;15.60;99.90
8892;DHT22;4482;54.332;10.118;2023-04-24T12:28:35;15.80;99.90
8892;DHT22;4482;54.332;10.118;2023-04-24T12:31:02;16.00;99.90
8892;DHT22;4482;54.332;10.118;2023-04-24T12:33:32;16.10;99.90
8892;DHT22;4482;54.332;10.118;2023-04-24T12:35:59;16.20;99.90
8892;DHT22;4482;54.332;10.118;2023-04-24T12:38:26;16.20;99.90
8892;DHT22;4482;54.332;10.118;2023-04-24T12:41:01;16.20;99.90
8892;DHT22;4482;54.332;10.118;2023-04-24T12:43:28;16.10;99.90
8892;DHT22;4482;54.332;10.118;2023-04-24T12:45:56;16.30;99.90
8892;DHT22;4482;54.332;10.118;2023-04-24T12:48:24;16.30;99.90
8892;DHT22;4482;54.332;10.118;2023-04-24T12:50:51;16.10;99.90
8892;DHT22;4482;54.332;10.118;2023-04-24T12:53:17;16.00;99.90
8892;DHT22;4482;54.332;10.118;2023-04-24T12:55:44;16.00;99.90
8892;DHT22;4482;54.332;10.118;2023-04-24T12:58:12;15.90;99.90
8892;DHT22;4482;54.332;10.118;2023-04-24T13:00:38;15.90;99.90
8892;DHT22;4482;54.332;10.118;2023-04-24T13:03:09;15.80;99.90
8892;DHT22;4482;54.332;10.118;2023-04-24T13:05:36;15.70;99.90
8892;DHT22;4482;54.332;10.118;2023-04-24T13:08:03;15.60;99.90
8892;DHT22;4482;54.332;10.118;2023-04-24T13:10:29;15.60;99.90
8892;DHT22;4482;54.332;10.118;2023-04-24T13:12:56;15.40;99.90
8892;DHT22;4482;54.332;10.118;2023-04-24T13:15:23;15.30;99.90
8892;DHT22;4482;54.332;10.118;2023-04-24T13:17:50;15.20;99.90
8892;DHT22;4482;54.332;10.118;2023-04-24T13:20:18;15.20;99.90
8892;DHT22;4482;54.332;10.118;2023-04-24T13:22:44;15.30;99.90
8892;DHT22;4482;54.332;10.118;2023-04-24T13:25:11;15.40;99.90
8892;DHT22;4482;54.332;10.118;2023-04-24T13:27:38;15.50;99.90
8892;DHT22;4482;54.332;10.118;2023-04-24T13:30:05;15.40;99.90
8892;DHT22;4482;54.332;10.118;2023-04-24T13:32:32;15.30;99.90
8892;DHT22;4482;54.332;10.118;2023-04-24T13:34:58;15.20;99.90
8892;DHT22;4482;54.332;10.118;2023-04-24T13:37:26;15.00;99.90
8892;DHT22;4482;54.332;10.118;2023-04-24T13:39:53;14.90;99.90
8892;DHT22;4482;54.332;10.118;2023-04-24T13:42:20;14.70;99.90
8892;DHT22;4482;54.332;10.118;2023-04-24T13:44:46;14.70;99.90
8892;DHT22;4482;54.332;10.118;2023-04-24T13:47:13;14.60;99.90
8892;DHT22;4482;54.332;10.118;2023-04-24T13:49:40;14.50;99.90
8892;DHT22;4482;54.332;10.118;2023-04-24T13:52:06;14.40;99.90
8892;DHT22;4482;54.332;10.118;2023-04-24T13:54:34;14.30;99.90
8892;DHT22;4482;54.332;10.118;2023-04-24T13:57:01;14.30;99.90
8892;DHT22;4482;54.332;10.118;2023-04-24T13:59:28;14.20;99.90
8892;DHT22;4482;54.332;10.118;2023-04-24T14:01:54;14.20;99.90
8892;DHT22;4482;54.332;10.118;2023-04-24T14:04:21;14.30;99.90
8892;DHT22;4482;54.332;10.118;2023-04-24T14:06:48;14.30;99.90
8892;DHT22;4482;54.332;10.118;2023-04-24T14:09:14;14.60;99.90
8892;DHT22;4482;54.332;10.118;2023-04-24T14:11:42;14.70;99.90
8892;DHT22;4482;54.332;10.118;2023-04-24T14:14:09;14.70;99.90
8892;DHT22;4482;54.332;10.118;2023-04-24T14:16:36;14.70;99.90
8892;DHT22;4482;54.332;10.118;2023-04-24T14:19:03;14.50;99.90
8892;DHT22;4482;54.332;10.118;2023-04-24T14:21:31;14.50;99.90
8892;DHT22;4482;54.332;10.118;2023-04-24T14:23:58;14.70;99.90
8892;DHT22;4482;54.332;10.118;2023-04-24T14:26:25;14.70;99.90
8892;DHT22;4482;54.332;10.118;2023-04-24T14:28:53;14.80;99.90
8892;DHT22;4482;54.332;10.118;2023-04-24T14:31:20;14.60;99.90
8892;DHT22;4482;54.332;10.118;2023-04-24T14:33:47;14.50;99.90
8892;DHT22;4482;54.332;10.118;2023-04-24T14:36:13;14.30;99.90
8892;DHT22;4482;54.332;10.118;2023-04-24T14:38:40;14.10;99.90
8892;DHT22;4482;54.332;10.118;2023-04-24T14:41:07;13.90;99.90
8892;DHT22;4482;54.332;10.118;2023-04-24T14:43:35;13.80;99.90
8892;DHT22;4482;54.332;10.118;2023-04-24T14:46:04;13.70;99.90
8892;DHT22;4482;54.332;10.118;2023-04-24T14:48:31;13.60;99.90
8892;DHT22;4482;54.332;10.118;2023-04-24T14:50:58;13.60;99.90
8892;DHT22;4482;54.332;10.118;2023-04-24T14:53:24;13.70;99.90
8892;DHT22;4482;54.332;10.118;2023-04-24T14:55:51;13.50;99.90
8892;DHT22;4482;54.332;10.118;2023-04-24T14:58:18;13.60;99.90
8892;DHT22;4482;54.332;10.118;2023-04-24T15:00:45;13.80;99.90
8892;DHT22;4482;54.332;10.118;2023-04-24T15:03:13;13.80;99.90
8892;DHT22;4482;54.332;10.118;2023-04-24T15:05:39;13.90;99.90
8892;DHT22;4482;54.332;10.118;2023-04-24T15:08:06;14.00;99.90
8892;DHT22;4482;54.332;10.118;2023-04-24T15:10:33;13.90;99.90
8892;DHT22;4482;54.332;10.118;2023-04-24T15:13:00;13.70;99.90
8892;DHT22;4482;54.332;10.118;2023-04-24T15:15:27;13.60;99.90
8892;DHT22;4482;54.332;10.118;2023-04-24T15:17:53;13.50;99.90
8892;DHT22;4482;54.332;10.118;2023-04-24T15:20:22;13.50;99.90
8892;DHT22;4482;54.332;10.118;2023-04-24T15:22:48;13.60;99.90
8892;DHT22;4482;54.332;10.118;2023-04-24T15:25:15;13.60;99.90
8892;DHT22;4482;54.332;10.118;2023-04-24T15:27:42;13.80;99.90
8892;DHT22;4482;54.332;10.118;2023-04-24T15:30:09;13.90;99.90
8892;DHT22;4482;54.332;10.118;2023-04-24T15:32:36;13.90;99.90
8892;DHT22;4482;54.332;10.118;2023-04-24T15:35:03;13.90;99.90
8892;DHT22;4482;54.332;10.118;2023-04-24T15:37:34;13.70;99.90
8892;DHT22;4482;54.332;10.118;2023-04-24T15:40:00;13.80;99.90
8892;DHT22;4482;54.332;10.118;2023-04-24T15:42:29;13.70;99.90
8892;DHT22;4482;54.332;10.118;2023-04-24T15:44:56;13.70;99.90
8892;DHT22;4482;54.332;10.118;2023-04-24T15:47:22;13.50;99.90